PPDGH SBNF-SBFL
Flight info
| Callsign | PPDGH |
|---|---|
| Flight time | N/A |
| Altitude | 2500 |
| Route | REA |
| Aircraft | PA28/L-SDG/C |
Departure
| Time | 2026-04-24 10:59 |
|---|---|
| Airport | Ministro Victor Konder International Airport (SBNF) |
Arrival
| Time | N/A |
|---|---|
| Airport | Hercílio Luz International Airport (SBFL) |
| Time | Latitude | Longitude | Altitude | Speed | Heading |
|---|---|---|---|---|---|
| 2026-04-24 10:49 | -26.87916 | -48.64761 | 23 ft | 0 kts | 236° |
| 2026-04-24 10:53 | -26.87919 | -48.64767 | 23 ft | 4 kts | 235° |
| 2026-04-24 10:53 | -26.87924 | -48.64789 | 23 ft | 4 kts | 314° |
| 2026-04-24 10:53 | -26.87898 | -48.64810 | 23 ft | 4 kts | 322° |
| 2026-04-24 10:54 | -26.87899 | -48.64842 | 23 ft | 5 kts | 285° |
| 2026-04-24 10:54 | -26.87887 | -48.64856 | 23 ft | 0 kts | 328° |
| 2026-04-24 10:56 | -26.87883 | -48.64859 | 23 ft | 3 kts | 327° |
| 2026-04-24 10:56 | -26.87839 | -48.64887 | 24 ft | 10 kts | 352° |
| 2026-04-24 10:56 | -26.87780 | -48.64824 | 24 ft | 15 kts | 55° |
| 2026-04-24 10:57 | -26.87713 | -48.64717 | 26 ft | 19 kts | 56° |
| 2026-04-24 10:57 | -26.87629 | -48.64582 | 25 ft | 24 kts | 53° |
| 2026-04-24 10:57 | -26.87544 | -48.64456 | 25 ft | 12 kts | 44° |
| 2026-04-24 10:57 | -26.87535 | -48.64425 | 25 ft | 7 kts | 246° |
| 2026-04-24 10:58 | -26.87544 | -48.64441 | 25 ft | 0 kts | 236° |
| 2026-04-24 10:58 | -26.87552 | -48.64454 | 25 ft | 12 kts | 236° |
| 2026-04-24 10:58 | -26.87708 | -48.64713 | 26 ft | 65 kts | 235° |
| 2026-04-24 10:58 | -26.88020 | -48.65191 | 163 ft | 81 kts | 235° |
| 2026-04-24 10:59 | -26.88325 | -48.65690 | 425 ft | 77 kts | 238° |
| 2026-04-24 10:59 | -26.88556 | -48.66228 | 655 ft | 78 kts | 257° |
| 2026-04-24 10:59 | -26.88510 | -48.66837 | 817 ft | 82 kts | 290° |
| 2026-04-24 10:59 | -26.88151 | -48.67334 | 990 ft | 80 kts | 316° |
| 2026-04-24 11:00 | -26.87666 | -48.67583 | 1167 ft | 77 kts | 348° |
| 2026-04-24 11:00 | -26.87135 | -48.67484 | 1270 ft | 84 kts | 31° |
| 2026-04-24 11:00 | -26.86849 | -48.66917 | 1398 ft | 87 kts | 77° |
| 2026-04-24 11:00 | -26.86857 | -48.66247 | 1541 ft | 88 kts | 98° |
| 2026-04-24 11:01 | -26.87097 | -48.65626 | 1697 ft | 87 kts | 124° |
| 2026-04-24 11:01 | -26.87582 | -48.65229 | 1831 ft | 88 kts | 155° |
| 2026-04-24 11:01 | -26.88156 | -48.65008 | 1970 ft | 87 kts | 159° |
| 2026-04-24 11:01 | -26.88738 | -48.64819 | 2126 ft | 87 kts | 163° |
| 2026-04-24 11:02 | -26.89315 | -48.64642 | 2290 ft | 85 kts | 162° |
| 2026-04-24 11:02 | -26.89884 | -48.64456 | 2437 ft | 85 kts | 160° |
| 2026-04-24 11:02 | -26.90444 | -48.64250 | 2575 ft | 84 kts | 158° |
| 2026-04-24 11:02 | -26.91000 | -48.64033 | 2709 ft | 85 kts | 156° |
| 2026-04-24 11:03 | -26.91540 | -48.63792 | 2844 ft | 85 kts | 154° |
| 2026-04-24 11:03 | -26.92084 | -48.63544 | 2941 ft | 85 kts | 154° |
| 2026-04-24 11:03 | -26.92649 | -48.63303 | 3005 ft | 90 kts | 155° |
| 2026-04-24 11:03 | -26.93248 | -48.63027 | 3040 ft | 95 kts | 155° |
| 2026-04-24 11:04 | -26.93876 | -48.62738 | 3045 ft | 99 kts | 155° |
| 2026-04-24 11:04 | -26.94536 | -48.62481 | 3058 ft | 101 kts | 158° |
| 2026-04-24 11:04 | -26.95198 | -48.62207 | 3057 ft | 102 kts | 157° |
| 2026-04-24 11:04 | -26.95863 | -48.61932 | 3058 ft | 102 kts | 157° |
| 2026-04-24 11:05 | -26.96526 | -48.61657 | 3061 ft | 102 kts | 157° |
| 2026-04-24 11:05 | -26.97203 | -48.61423 | 3045 ft | 105 kts | 174° |
| 2026-04-24 11:05 | -26.97893 | -48.61719 | 3026 ft | 107 kts | 205° |
| 2026-04-24 11:05 | -26.98576 | -48.62032 | 3026 ft | 106 kts | 201° |
| 2026-04-24 11:06 | -26.99251 | -48.62353 | 3021 ft | 105 kts | 201° |
| 2026-04-24 11:06 | -26.99927 | -48.62673 | 3027 ft | 105 kts | 201° |
| 2026-04-24 11:06 | -27.00603 | -48.62989 | 3042 ft | 105 kts | 200° |
| 2026-04-24 11:06 | -27.01317 | -48.63134 | 3041 ft | 105 kts | 179° |
| 2026-04-24 11:07 | -27.02675 | -48.62660 | 3031 ft | 102 kts | 152° |
| 2026-04-24 11:07 | -27.03321 | -48.62324 | 3003 ft | 103 kts | 153° |
| 2026-04-24 11:07 | -27.03965 | -48.61977 | 3004 ft | 102 kts | 152° |
| 2026-04-24 11:08 | -27.04607 | -48.61631 | 2940 ft | 103 kts | 152° |
| 2026-04-24 11:08 | -27.05266 | -48.61310 | 2923 ft | 104 kts | 161° |
| 2026-04-24 11:08 | -27.05986 | -48.61195 | 2927 ft | 105 kts | 175° |
| 2026-04-24 11:08 | -27.06718 | -48.61166 | 2943 ft | 105 kts | 180° |
| 2026-04-24 11:09 | -27.07448 | -48.61268 | 2954 ft | 106 kts | 187° |
| 2026-04-24 11:09 | -27.08157 | -48.61479 | 2946 ft | 108 kts | 210° |
| 2026-04-24 11:09 | -27.08808 | -48.61880 | 2957 ft | 108 kts | 190° |
| 2026-04-24 11:09 | -27.09550 | -48.61902 | 2976 ft | 106 kts | 180° |
| 2026-04-24 11:10 | -27.10275 | -48.61941 | 3005 ft | 105 kts | 181° |
| 2026-04-24 11:10 | -27.11007 | -48.61970 | 3025 ft | 105 kts | 180° |
| 2026-04-24 11:10 | -27.11738 | -48.61996 | 3048 ft | 105 kts | 180° |
| 2026-04-24 11:10 | -27.12468 | -48.62023 | 3055 ft | 105 kts | 180° |
| 2026-04-24 11:11 | -27.13194 | -48.62045 | 2984 ft | 102 kts | 179° |
| 2026-04-24 11:11 | -27.13912 | -48.61942 | 2615 ft | 106 kts | 163° |
| 2026-04-24 11:11 | -27.14623 | -48.61731 | 2274 ft | 106 kts | 169° |
| 2026-04-24 11:11 | -27.15366 | -48.61724 | 1911 ft | 107 kts | 187° |
| 2026-04-24 11:12 | -27.16043 | -48.62021 | 1565 ft | 106 kts | 208° |
| 2026-04-24 11:12 | -27.16652 | -48.62449 | 1275 ft | 100 kts | 217° |
| 2026-04-24 11:12 | -27.17054 | -48.62989 | 1103 ft | 85 kts | 250° |
| 2026-04-24 11:12 | -27.17071 | -48.63630 | 894 ft | 80 kts | 289° |
| 2026-04-24 11:13 | -27.16743 | -48.64093 | 721 ft | 77 kts | 329° |
| 2026-04-24 11:13 | -27.16197 | -48.64087 | 561 ft | 82 kts | 17° |
| 2026-04-24 11:13 | -27.15782 | -48.63678 | 406 ft | 81 kts | 54° |
| 2026-04-24 11:13 | -27.15849 | -48.63104 | 223 ft | 80 kts | 143° |
| 2026-04-24 11:14 | -27.16259 | -48.62684 | 41 ft | 78 kts | 135° |
| 2026-04-24 11:14 | -27.16580 | -48.62271 | 21 ft | 63 kts | 131° |
| 2026-04-24 11:14 | -27.16740 | -48.62066 | 19 ft | 10 kts | 130° |
| 2026-04-24 11:14 | -27.16759 | -48.62010 | 18 ft | 2 kts | 50° |
| 2026-04-24 11:15 | -27.16755 | -48.62004 | 18 ft | 4 kts | 49° |
| 2026-04-24 11:15 | -27.16744 | -48.61987 | 19 ft | 1 kts | 19° |
| 2026-04-24 11:15 | -27.16732 | -48.61993 | 19 ft | 2 kts | 313° |
| 2026-04-24 11:15 | -27.16731 | -48.61997 | 19 ft | 0 kts | 221° |